createdAt,value
2022-10-14T00:00:22.538Z,13.74
2022-10-14T00:01:24.452Z,13.73
2022-10-14T00:02:25.829Z,13.73
2022-10-14T00:03:27.173Z,13.72
2022-10-14T00:04:28.558Z,13.69
2022-10-14T00:05:29.905Z,13.66
2022-10-14T00:06:31.970Z,13.63
2022-10-14T00:07:33.306Z,13.65
2022-10-14T00:08:34.733Z,13.65
2022-10-14T00:09:37.213Z,13.68
2022-10-14T00:10:39.791Z,13.67
2022-10-14T00:11:41.140Z,13.65
2022-10-14T00:12:42.464Z,13.61
2022-10-14T00:13:44.340Z,13.58
2022-10-14T00:14:45.773Z,13.58
2022-10-14T00:15:47.113Z,13.56
2022-10-14T00:16:51.856Z,13.55
2022-10-14T00:17:53.169Z,13.55
2022-10-14T00:18:54.768Z,13.55
2022-10-14T00:19:56.425Z,13.57
2022-10-14T00:20:58.692Z,13.58
2022-10-14T00:22:00.042Z,13.58
2022-10-14T00:23:01.640Z,13.58
2022-10-14T00:24:03.043Z,13.59
2022-10-14T00:25:04.535Z,13.60
2022-10-14T00:26:06.646Z,13.60
2022-10-14T00:27:09.855Z,13.60
2022-10-14T00:28:11.177Z,13.59
2022-10-14T00:29:13.720Z,13.59
2022-10-14T00:30:15.450Z,13.59
2022-10-14T00:31:17.391Z,13.59
2022-10-14T00:32:21.829Z,13.60
2022-10-14T00:33:26.265Z,13.60
2022-10-14T00:34:30.600Z,13.62
2022-10-14T00:35:34.910Z,13.62
2022-10-14T00:36:36.247Z,13.60
2022-10-14T00:37:37.639Z,13.60
2022-10-14T00:38:39.577Z,13.61
2022-10-14T00:39:40.875Z,13.61
2022-10-14T00:40:42.222Z,13.62
2022-10-14T00:41:43.726Z,13.62
2022-10-14T00:42:45.162Z,13.62
2022-10-14T00:44:06.528Z,13.61
2022-10-14T00:45:12.419Z,13.60
2022-10-14T00:46:13.734Z,13.61
2022-10-14T00:47:15.110Z,13.61
2022-10-14T00:48:17.785Z,13.61
2022-10-14T00:49:28.920Z,13.61
2022-10-14T00:50:30.276Z,13.61
2022-10-14T00:51:33.127Z,13.61
2022-10-14T00:52:34.477Z,13.61
2022-10-14T00:53:36.005Z,13.64
2022-10-14T00:54:49.892Z,13.64
2022-10-14T00:55:51.275Z,13.65
2022-10-14T00:56:52.744Z,13.62
2022-10-14T00:57:54.101Z,13.61
2022-10-14T00:58:56.373Z,13.60
2022-10-14T01:00:01.869Z,13.63
2022-10-14T01:01:03.343Z,13.63
2022-10-14T01:02:05.047Z,13.67
2022-10-14T01:03:07.589Z,13.66
2022-10-14T01:04:08.892Z,13.64
2022-10-14T01:05:11.419Z,13.65
2022-10-14T01:06:24.978Z,13.63
2022-10-14T01:07:46.114Z,13.63
2022-10-14T01:08:58.747Z,13.65
2022-10-14T01:10:23.170Z,13.64
2022-10-14T01:11:31.440Z,13.63
2022-10-14T01:12:36.000Z,13.65
2022-10-14T01:13:42.561Z,13.65
2022-10-14T01:14:52.778Z,13.64
2022-10-14T01:15:57.142Z,13.65
2022-10-14T01:17:10.493Z,13.65
2022-10-14T01:18:30.164Z,13.64
2022-10-14T01:19:39.260Z,13.64
2022-10-14T01:20:43.431Z,13.65
2022-10-14T01:21:48.345Z,13.65
2022-10-14T01:23:03.781Z,13.64
2022-10-14T01:24:21.992Z,13.66
2022-10-14T01:25:31.844Z,13.66
2022-10-14T01:26:51.589Z,13.66
2022-10-14T01:28:14.821Z,13.63
2022-10-14T01:29:26.529Z,13.67
2022-10-14T01:30:51.185Z,13.65
2022-10-14T01:32:05.776Z,13.65
2022-10-14T01:33:13.542Z,13.63
2022-10-14T01:34:18.716Z,13.64
2022-10-14T01:35:20.078Z,13.65
2022-10-14T01:36:37.559Z,13.66
2022-10-14T01:37:45.258Z,13.65
2022-10-14T01:38:58.876Z,13.66
2022-10-14T01:40:03.040Z,13.66
2022-10-14T01:41:06.963Z,13.67
2022-10-14T01:42:11.002Z,13.66
2022-10-14T01:43:13.269Z,13.64
2022-10-14T01:44:16.797Z,13.64
2022-10-14T01:45:20.441Z,13.64
2022-10-14T01:46:24.428Z,13.64
2022-10-14T01:47:28.354Z,13.65
2022-10-14T01:48:32.575Z,13.65
2022-10-14T01:49:39.493Z,13.65
2022-10-14T01:50:44.525Z,13.63
2022-10-14T01:51:51.235Z,13.62
2022-10-14T01:52:56.560Z,13.62
2022-10-14T01:54:02.557Z,13.62
2022-10-14T01:55:07.174Z,13.61
2022-10-14T01:56:09.561Z,13.64
2022-10-14T01:57:15.353Z,13.62
2022-10-14T01:58:18.137Z,13.62
2022-10-14T01:59:21.161Z,13.62
2022-10-14T02:00:22.589Z,13.65
2022-10-14T02:01:24.358Z,13.64
2022-10-14T02:02:25.921Z,13.65
2022-10-14T02:03:37.641Z,13.64
2022-10-14T02:04:39.618Z,13.61
2022-10-14T02:05:53.137Z,13.63
2022-10-14T02:06:57.679Z,13.64
2022-10-14T02:08:04.929Z,13.63
2022-10-14T02:09:06.232Z,13.62
2022-10-14T02:10:44.014Z,13.64
2022-10-14T02:11:51.191Z,13.62
2022-10-14T02:13:00.296Z,13.62
2022-10-14T02:14:26.433Z,13.61
2022-10-14T02:15:45.397Z,13.61
2022-10-14T02:16:59.974Z,13.61
2022-10-14T02:18:10.672Z,13.63
2022-10-14T02:19:29.292Z,13.63
2022-10-14T02:20:35.745Z,13.61
2022-10-14T02:21:41.582Z,13.64
2022-10-14T02:22:45.169Z,13.61
2022-10-14T02:23:49.920Z,13.61
2022-10-14T02:24:52.879Z,13.60
2022-10-14T02:25:54.844Z,13.60
2022-10-14T02:26:57.994Z,13.60
2022-10-14T02:28:01.128Z,13.61
2022-10-14T02:29:03.133Z,13.58
2022-10-14T02:30:04.696Z,13.53
2022-10-14T02:31:10.377Z,13.51
2022-10-14T02:32:13.985Z,13.49
2022-10-14T02:33:15.624Z,13.47
2022-10-14T02:34:20.928Z,13.46
2022-10-14T02:35:24.106Z,13.47
2022-10-14T02:36:26.747Z,13.44
2022-10-14T02:37:29.568Z,13.41
2022-10-14T02:38:33.930Z,13.37
2022-10-14T02:39:37.183Z,13.34
2022-10-14T02:40:44.641Z,13.32
2022-10-14T02:41:46.125Z,13.31
2022-10-14T02:42:47.454Z,13.30
2022-10-14T02:43:48.836Z,13.31
2022-10-14T02:44:58.013Z,13.29
2022-10-14T02:46:01.391Z,13.27
2022-10-14T02:47:03.298Z,13.24
2022-10-14T02:48:05.702Z,13.23
2022-10-14T02:49:07.097Z,13.22
2022-10-14T02:50:08.675Z,13.22
2022-10-14T02:51:10.049Z,13.18
2022-10-14T02:52:12.846Z,13.21
2022-10-14T02:53:16.081Z,13.22
2022-10-14T02:54:19.974Z,13.20
2022-10-14T02:55:21.401Z,13.18
2022-10-14T02:56:22.972Z,13.17
2022-10-14T02:57:24.384Z,13.17
2022-10-14T02:58:25.709Z,13.15
2022-10-14T02:59:27.085Z,13.14
2022-10-14T03:00:29.364Z,13.14
2022-10-14T03:01:36.469Z,13.12
2022-10-14T03:02:39.544Z,13.13
2022-10-14T03:03:41.785Z,13.15
2022-10-14T03:04:43.157Z,13.12
2022-10-14T03:05:45.149Z,13.14
2022-10-14T03:06:48.288Z,13.14
2022-10-14T03:07:49.715Z,13.13
2022-10-14T03:08:53.140Z,13.12
2022-10-14T03:09:54.494Z,13.14
2022-10-14T03:10:58.300Z,13.12
2022-10-14T03:12:00.656Z,13.15
2022-10-14T03:13:02.772Z,13.17
2022-10-14T03:14:09.458Z,13.15
2022-10-14T03:15:11.596Z,13.13
2022-10-14T03:16:14.033Z,13.11
2022-10-14T03:17:18.599Z,13.09
2022-10-14T03:18:20.919Z,13.08
2022-10-14T03:19:23.804Z,13.08
2022-10-14T03:20:28.888Z,13.08
2022-10-14T03:21:31.987Z,13.08
2022-10-14T03:22:33.363Z,13.12
2022-10-14T03:23:34.853Z,13.11
2022-10-14T03:24:36.980Z,13.12
2022-10-14T03:26:13.844Z,13.13
2022-10-14T03:27:18.181Z,13.12
2022-10-14T03:28:23.250Z,13.10
2022-10-14T03:29:35.472Z,13.10
2022-10-14T03:30:46.958Z,13.10
2022-10-14T03:31:53.409Z,13.09
2022-10-14T03:33:22.782Z,13.10
2022-10-14T03:34:35.242Z,13.08
2022-10-14T03:35:40.400Z,13.06
2022-10-14T03:36:45.984Z,13.08
2022-10-14T03:37:47.797Z,13.08
2022-10-14T03:38:51.945Z,13.09
2022-10-14T03:40:13.753Z,13.08
2022-10-14T03:41:15.081Z,13.08
2022-10-14T03:42:16.461Z,13.08
2022-10-14T03:43:21.504Z,13.09
2022-10-14T03:44:29.058Z,13.12
2022-10-14T03:45:45.859Z,13.12
2022-10-14T03:46:48.760Z,13.11
2022-10-14T03:47:50.105Z,13.13
2022-10-14T03:48:52.094Z,13.12
2022-10-14T03:49:53.745Z,13.15
2022-10-14T03:51:00.966Z,13.13
2022-10-14T03:52:03.859Z,13.12
2022-10-14T03:53:08.153Z,13.13
2022-10-14T03:54:11.306Z,13.14
2022-10-14T03:55:13.386Z,13.15
2022-10-14T03:56:16.966Z,13.15
2022-10-14T03:57:19.359Z,13.16
2022-10-14T03:58:26.075Z,13.16
2022-10-14T03:59:33.259Z,13.15
2022-10-14T04:00:35.182Z,13.13
2022-10-14T04:01:52.246Z,13.13
2022-10-14T04:02:57.790Z,13.12
2022-10-14T04:04:08.090Z,13.12
2022-10-14T04:05:10.869Z,13.10
2022-10-14T04:06:13.502Z,13.09
2022-10-14T04:07:14.880Z,13.08
2022-10-14T04:08:23.143Z,13.08
2022-10-14T04:09:30.397Z,13.05
2022-10-14T04:10:31.782Z,13.07
2022-10-14T04:11:33.578Z,13.05
2022-10-14T04:12:39.704Z,13.05
2022-10-14T04:13:45.296Z,13.07
2022-10-14T04:14:46.623Z,13.05
2022-10-14T04:15:48.030Z,13.04
2022-10-14T04:17:12.414Z,13.03
2022-10-14T04:18:13.791Z,13.04
2022-10-14T04:19:16.817Z,13.05
2022-10-14T04:20:18.745Z,13.05
2022-10-14T04:21:20.880Z,13.04
2022-10-14T04:22:25.117Z,13.04
2022-10-14T04:23:29.216Z,13.02
2022-10-14T04:24:36.385Z,13.01
2022-10-14T04:25:38.532Z,13.10
2022-10-14T04:26:40.782Z,13.09
2022-10-14T04:27:48.354Z,13.08
2022-10-14T04:28:49.768Z,13.09
2022-10-14T04:30:05.237Z,13.05
2022-10-14T04:31:16.687Z,13.04
2022-10-14T04:32:33.071Z,13.05
2022-10-14T04:33:34.850Z,13.05
2022-10-14T04:34:44.068Z,13.02
2022-10-14T04:35:49.051Z,13.00
2022-10-14T04:36:58.272Z,12.99
2022-10-14T04:38:16.817Z,13.01
2022-10-14T04:39:26.371Z,13.01
2022-10-14T04:40:27.895Z,13.00
2022-10-14T04:41:31.711Z,13.01
2022-10-14T04:42:35.351Z,13.05
2022-10-14T04:43:40.025Z,13.04
2022-10-14T04:44:56.978Z,13.07
2022-10-14T04:46:07.896Z,13.04
2022-10-14T04:47:09.448Z,13.04
2022-10-14T04:48:11.715Z,13.06
2022-10-14T04:49:17.077Z,13.07
2022-10-14T04:50:27.524Z,13.07
2022-10-14T04:51:47.381Z,13.05
2022-10-14T04:53:01.138Z,13.07
2022-10-14T04:54:02.496Z,13.07
2022-10-14T04:55:19.320Z,13.07
2022-10-14T04:56:21.017Z,13.07
2022-10-14T04:57:31.331Z,13.08
2022-10-14T04:58:32.835Z,13.09
2022-10-14T04:59:34.234Z,13.07
2022-10-14T05:00:53.785Z,13.06
2022-10-14T05:02:03.152Z,13.08
2022-10-14T05:03:13.497Z,13.07
2022-10-14T05:04:14.855Z,13.09
2022-10-14T05:05:18.045Z,13.08
2022-10-14T05:06:24.386Z,13.10
2022-10-14T05:07:27.224Z,13.11
2022-10-14T05:08:36.510Z,13.10
2022-10-14T05:09:39.957Z,13.10
2022-10-14T05:10:52.922Z,13.11
2022-10-14T05:12:08.370Z,13.10
2022-10-14T05:13:18.076Z,13.10
2022-10-14T05:14:29.593Z,13.09
2022-10-14T05:15:42.169Z,13.10
2022-10-14T05:16:46.619Z,13.10
2022-10-14T05:17:48.141Z,13.09
2022-10-14T05:18:53.247Z,13.09
2022-10-14T05:19:54.646Z,13.08
2022-10-14T05:20:58.345Z,13.08
2022-10-14T05:22:02.621Z,13.05
2022-10-14T05:23:11.318Z,13.05
2022-10-14T05:24:12.776Z,13.06
2022-10-14T05:25:15.298Z,13.04
2022-10-14T05:26:17.257Z,13.05
2022-10-14T05:27:19.116Z,13.10
2022-10-14T05:28:20.914Z,13.09
2022-10-14T05:29:24.105Z,13.07
2022-10-14T05:30:28.659Z,13.07
2022-10-14T05:31:33.635Z,13.07
2022-10-14T05:32:42.088Z,13.05
2022-10-14T05:33:43.525Z,13.06
2022-10-14T05:34:45.294Z,13.08
2022-10-14T05:36:07.167Z,13.07
2022-10-14T05:37:09.190Z,13.07
2022-10-14T05:38:17.624Z,13.09
2022-10-14T05:39:22.538Z,13.09
2022-10-14T05:40:23.947Z,13.09
2022-10-14T05:41:27.029Z,13.08
2022-10-14T05:42:28.370Z,13.12
2022-10-14T05:43:33.093Z,13.12
2022-10-14T05:44:36.613Z,13.13
2022-10-14T05:45:39.031Z,13.13
2022-10-14T05:46:40.846Z,13.12
2022-10-14T05:47:46.015Z,13.15
2022-10-14T05:48:52.418Z,13.18
2022-10-14T05:50:00.647Z,13.17
2022-10-14T05:51:07.285Z,13.15
2022-10-14T05:52:13.657Z,13.16
2022-10-14T05:53:15.248Z,13.19
2022-10-14T05:54:20.986Z,13.20
2022-10-14T05:55:27.493Z,13.21
2022-10-14T05:56:38.065Z,13.23
2022-10-14T05:57:39.601Z,13.24
2022-10-14T05:58:40.992Z,13.22
2022-10-14T05:59:43.007Z,13.22
2022-10-14T06:00:44.490Z,13.23
2022-10-14T06:01:50.194Z,13.24
2022-10-14T06:02:52.790Z,13.25
2022-10-14T06:03:54.322Z,13.22
2022-10-14T06:04:56.337Z,13.23
2022-10-14T06:05:58.009Z,13.25
2022-10-14T06:06:59.368Z,13.26
2022-10-14T06:08:00.698Z,13.26
2022-10-14T06:09:02.037Z,13.26
2022-10-14T06:10:03.527Z,13.30
2022-10-14T06:11:04.928Z,13.30
2022-10-14T06:12:08.353Z,13.31
2022-10-14T06:13:10.561Z,13.31
2022-10-14T06:14:13.574Z,13.33
2022-10-14T06:15:15.374Z,13.33
2022-10-14T06:16:16.700Z,13.34
2022-10-14T06:17:24.313Z,13.34
2022-10-14T06:18:25.727Z,13.34
2022-10-14T06:19:28.341Z,13.33
2022-10-14T06:20:29.693Z,13.36
2022-10-14T06:21:31.017Z,13.36
2022-10-14T06:22:32.306Z,13.37
2022-10-14T06:23:33.654Z,13.40
2022-10-14T06:24:34.987Z,13.39
2022-10-14T06:25:36.486Z,13.38
2022-10-14T06:26:37.811Z,13.40
2022-10-14T06:27:39.135Z,13.41
2022-10-14T06:28:40.569Z,13.42
2022-10-14T06:29:41.970Z,13.42
2022-10-14T06:30:43.466Z,13.43
2022-10-14T06:31:44.759Z,13.42
2022-10-14T06:32:46.285Z,13.42
2022-10-14T06:33:47.585Z,13.43
2022-10-14T06:34:48.953Z,13.41
2022-10-14T06:35:50.335Z,13.42
2022-10-14T06:36:51.650Z,13.45
2022-10-14T06:37:52.965Z,13.45
2022-10-14T06:38:54.317Z,13.47
2022-10-14T06:39:55.654Z,13.47
2022-10-14T06:40:57.032Z,13.47
2022-10-14T06:41:58.354Z,13.51
2022-10-14T06:42:59.665Z,13.50
2022-10-14T06:44:01.052Z,13.51
2022-10-14T06:45:02.403Z,13.52
2022-10-14T06:46:04.219Z,13.58
2022-10-14T06:47:06.578Z,13.55
2022-10-14T06:48:07.882Z,13.59
2022-10-14T06:49:09.226Z,13.60
2022-10-14T06:50:10.698Z,13.60
2022-10-14T06:51:12.085Z,13.59
2022-10-14T06:52:13.445Z,13.62
2022-10-14T06:53:14.880Z,13.65
2022-10-14T06:54:16.996Z,13.67
2022-10-14T06:55:18.321Z,13.66
2022-10-14T06:56:19.618Z,13.67
2022-10-14T06:57:20.955Z,13.70
2022-10-14T06:58:22.324Z,13.70
2022-10-14T06:59:23.689Z,13.71
2022-10-14T07:00:25.113Z,13.72
2022-10-14T07:01:26.588Z,13.76
2022-10-14T07:02:28.080Z,13.78
2022-10-14T07:03:29.396Z,13.82
2022-10-14T07:04:30.718Z,13.82
2022-10-14T07:05:32.061Z,13.81
2022-10-14T07:06:33.444Z,13.86
2022-10-14T07:07:34.749Z,13.87
2022-10-14T07:08:36.105Z,13.90
2022-10-14T07:09:37.567Z,13.90
2022-10-14T07:10:38.945Z,13.95
2022-10-14T07:11:40.274Z,13.99
2022-10-14T07:12:42.628Z,13.99
2022-10-14T07:13:44.319Z,13.97
2022-10-14T07:14:45.622Z,13.97
2022-10-14T07:15:49.793Z,13.98
2022-10-14T07:16:51.207Z,13.97
2022-10-14T07:17:52.537Z,13.98
2022-10-14T07:18:53.936Z,13.99
2022-10-14T07:19:55.245Z,14.00
2022-10-14T07:20:56.600Z,14.01
2022-10-14T07:21:57.965Z,14.01
2022-10-14T07:22:59.330Z,14.01
2022-10-14T07:24:00.627Z,14.01
2022-10-14T07:25:02.412Z,13.99
2022-10-14T07:26:03.808Z,13.99
2022-10-14T07:27:05.204Z,13.99
2022-10-14T07:28:06.819Z,14.00
2022-10-14T07:29:08.119Z,14.01
2022-10-14T07:30:12.581Z,14.00
2022-10-14T07:31:16.590Z,14.00
2022-10-14T07:32:17.908Z,14.03
2022-10-14T07:33:19.248Z,14.05
2022-10-14T07:34:20.643Z,14.09
2022-10-14T07:35:21.972Z,14.10
2022-10-14T07:36:23.634Z,14.15
2022-10-14T07:37:25.252Z,14.16
2022-10-14T07:38:26.733Z,14.19
2022-10-14T07:39:28.394Z,14.20
2022-10-14T07:40:29.777Z,14.23
2022-10-14T07:41:32.009Z,14.23
2022-10-14T07:42:34.102Z,14.30
2022-10-14T07:43:35.481Z,14.33
2022-10-14T07:44:36.845Z,14.35
2022-10-14T07:45:41.314Z,14.37
2022-10-14T07:46:43.445Z,14.38
2022-10-14T07:47:47.541Z,14.38
2022-10-14T07:48:57.509Z,14.40
2022-10-14T07:50:02.497Z,14.42
2022-10-14T07:51:03.880Z,14.43
2022-10-14T07:52:05.295Z,14.43
2022-10-14T07:53:06.667Z,14.43
2022-10-14T07:54:09.837Z,14.43
2022-10-14T07:55:11.436Z,14.45
2022-10-14T07:56:12.801Z,14.43
2022-10-14T07:57:14.315Z,14.43
2022-10-14T07:58:15.654Z,14.45
2022-10-14T07:59:18.084Z,14.48
2022-10-14T08:00:19.394Z,14.48
2022-10-14T08:01:20.773Z,14.53
2022-10-14T08:02:22.218Z,14.58
2022-10-14T08:03:24.269Z,14.65
2022-10-14T08:04:25.634Z,14.70
2022-10-14T08:05:42.801Z,14.71
2022-10-14T08:06:44.207Z,14.76
2022-10-14T08:07:45.603Z,14.76
2022-10-14T08:08:47.211Z,14.79
2022-10-14T08:09:48.595Z,14.81
2022-10-14T08:10:49.910Z,14.87
2022-10-14T08:11:51.261Z,14.88
2022-10-14T08:12:52.715Z,14.88
2022-10-14T08:13:54.749Z,14.89
2022-10-14T08:14:56.693Z,14.87
2022-10-14T08:15:58.086Z,14.87
2022-10-14T08:16:59.432Z,14.84
2022-10-14T08:18:01.082Z,14.83
2022-10-14T08:19:05.561Z,14.84
2022-10-14T08:20:09.083Z,14.87
2022-10-14T08:21:10.466Z,14.88
2022-10-14T08:22:11.781Z,14.90
2022-10-14T08:23:16.155Z,14.96
2022-10-14T08:24:20.369Z,15.00
2022-10-14T08:25:21.770Z,15.00
2022-10-14T08:26:32.144Z,14.99
2022-10-14T08:27:33.480Z,14.97
2022-10-14T08:28:34.859Z,14.98
2022-10-14T08:29:36.225Z,15.02
2022-10-14T08:30:37.528Z,15.02
2022-10-14T08:31:38.886Z,14.97
2022-10-14T08:32:40.412Z,15.02
2022-10-14T08:33:41.790Z,15.01
2022-10-14T08:34:43.112Z,15.04
2022-10-14T08:35:44.460Z,15.03
2022-10-14T08:36:45.793Z,15.04
2022-10-14T08:37:56.713Z,15.04
2022-10-14T08:38:58.099Z,15.03
2022-10-14T08:39:59.474Z,15.03
2022-10-14T08:41:06.627Z,15.03
2022-10-14T08:42:10.786Z,15.02
2022-10-14T08:43:18.287Z,15.02
2022-10-14T08:44:19.612Z,15.02
2022-10-14T08:45:32.474Z,15.02
2022-10-14T08:46:38.435Z,15.07
2022-10-14T08:47:42.104Z,15.01
2022-10-14T08:48:44.105Z,15.02
2022-10-14T08:50:00.618Z,15.03
2022-10-14T08:51:09.805Z,15.05
2022-10-14T08:52:15.352Z,15.03
2022-10-14T08:53:19.374Z,15.04
2022-10-14T08:54:31.073Z,15.05
2022-10-14T08:55:35.393Z,15.08
2022-10-14T08:56:37.242Z,15.07
2022-10-14T08:57:41.298Z,15.05
2022-10-14T08:58:53.143Z,15.07
2022-10-14T08:59:54.466Z,15.07
2022-10-14T09:00:56.142Z,15.11
2022-10-14T09:02:01.990Z,15.09
2022-10-14T09:03:10.178Z,15.09
2022-10-14T09:04:13.522Z,15.11
2022-10-14T09:05:15.944Z,15.15
2022-10-14T09:06:24.522Z,15.18
2022-10-14T09:07:26.153Z,15.22
2022-10-14T09:08:31.029Z,15.25
2022-10-14T09:09:43.277Z,15.28
2022-10-14T09:10:44.937Z,15.32
2022-10-14T09:11:48.621Z,15.38
2022-10-14T09:12:50.954Z,15.41
2022-10-14T09:13:57.318Z,15.45
2022-10-14T09:15:12.412Z,15.47
2022-10-14T09:16:17.281Z,15.52
2022-10-14T09:17:27.410Z,15.56
2022-10-14T09:18:36.644Z,15.57
2022-10-14T09:19:56.770Z,15.64
2022-10-14T09:20:58.767Z,15.66
2022-10-14T09:22:00.935Z,15.74
2022-10-14T09:23:02.240Z,15.81
2022-10-14T09:24:12.373Z,15.88
2022-10-14T09:25:16.623Z,15.91
2022-10-14T09:26:19.343Z,15.94
2022-10-14T09:27:22.380Z,15.95
2022-10-14T09:28:39.705Z,15.97
2022-10-14T09:29:48.651Z,15.99
2022-10-14T09:30:50.020Z,16.01
2022-10-14T09:31:51.709Z,16.03
2022-10-14T09:32:54.207Z,16.07
2022-10-14T09:33:56.070Z,16.09
2022-10-14T09:34:58.020Z,16.11
2022-10-14T09:36:00.348Z,16.14
2022-10-14T09:37:20.855Z,16.17
2022-10-14T09:38:22.567Z,16.21
2022-10-14T09:39:23.987Z,16.26
2022-10-14T09:40:28.206Z,16.27
2022-10-14T09:41:30.715Z,16.26
2022-10-14T09:42:42.703Z,16.27
2022-10-14T09:44:02.841Z,16.28
2022-10-14T09:45:23.149Z,16.27
2022-10-14T09:46:24.827Z,16.25
2022-10-14T09:47:26.408Z,16.28
2022-10-14T09:48:27.858Z,16.30
2022-10-14T09:49:33.737Z,16.36
2022-10-14T09:50:41.329Z,16.40
2022-10-14T09:51:43.289Z,16.42
2022-10-14T09:52:57.237Z,16.45
2022-10-14T09:53:59.921Z,16.44
2022-10-14T09:55:01.585Z,16.50
2022-10-14T09:56:04.724Z,16.52
2022-10-14T09:57:07.445Z,16.47
2022-10-14T09:58:14.382Z,16.50
2022-10-14T09:59:17.386Z,16.54
2022-10-14T10:00:26.155Z,16.60
2022-10-14T10:01:29.097Z,16.66
2022-10-14T10:02:39.371Z,16.67
2022-10-14T10:03:40.851Z,16.74
2022-10-14T10:04:44.189Z,16.79
2022-10-14T10:05:45.619Z,16.84
2022-10-14T10:06:51.307Z,16.89
2022-10-14T10:08:03.743Z,16.92
2022-10-14T10:09:05.106Z,16.89
2022-10-14T10:10:24.563Z,16.91
2022-10-14T10:11:30.386Z,16.90
2022-10-14T10:12:33.152Z,16.97
2022-10-14T10:13:36.115Z,16.98
2022-10-14T10:14:37.495Z,16.99
2022-10-14T10:15:38.794Z,16.97
2022-10-14T10:16:40.206Z,17.03
2022-10-14T10:17:41.657Z,17.10
2022-10-14T10:18:43.017Z,17.14
2022-10-14T10:19:48.073Z,17.16
2022-10-14T10:21:00.324Z,17.17
2022-10-14T10:22:34.263Z,17.22
2022-10-14T10:23:36.329Z,17.33
2022-10-14T10:24:37.641Z,17.37
2022-10-14T10:25:38.938Z,17.38
2022-10-14T10:26:40.249Z,17.42
2022-10-14T10:27:42.855Z,17.39
2022-10-14T10:28:45.629Z,17.42
2022-10-14T10:29:47.110Z,17.40
2022-10-14T10:30:57.562Z,17.42
2022-10-14T10:32:01.753Z,17.44
2022-10-14T10:33:03.074Z,17.45
2022-10-14T10:34:09.955Z,17.43
2022-10-14T10:35:17.523Z,17.41
2022-10-14T10:36:30.075Z,17.38
2022-10-14T10:37:32.702Z,17.38
2022-10-14T10:38:39.010Z,17.34
2022-10-14T10:39:40.295Z,17.33
2022-10-14T10:41:16.982Z,17.35
2022-10-14T10:42:26.131Z,17.39
2022-10-14T10:43:38.946Z,17.39
2022-10-14T10:44:43.280Z,17.44
2022-10-14T10:45:44.715Z,17.43
2022-10-14T10:46:46.156Z,17.45
2022-10-14T10:47:53.363Z,17.51
2022-10-14T10:49:17.420Z,17.59
2022-10-14T10:50:28.122Z,17.63
2022-10-14T10:51:29.598Z,17.77
2022-10-14T10:52:42.082Z,17.83
2022-10-14T10:53:48.385Z,17.92
2022-10-14T10:54:58.729Z,17.99
2022-10-14T10:56:15.906Z,18.02
2022-10-14T10:57:20.268Z,18.02
2022-10-14T10:58:39.696Z,18.06
2022-10-14T10:59:48.940Z,18.08
2022-10-14T11:00:54.664Z,18.04
2022-10-14T11:02:14.788Z,18.00
2022-10-14T11:03:36.061Z,18.04
2022-10-14T11:04:37.425Z,18.06
2022-10-14T11:05:51.482Z,18.08
2022-10-14T11:07:13.124Z,18.08
2022-10-14T11:08:24.709Z,18.06
2022-10-14T11:09:32.020Z,18.04
2022-10-14T11:10:42.542Z,18.01
2022-10-14T11:11:50.801Z,18.01
2022-10-14T11:13:00.813Z,18.03
2022-10-14T11:14:21.038Z,18.04
2022-10-14T11:15:40.674Z,18.13
2022-10-14T11:17:00.809Z,18.12
2022-10-14T11:18:20.953Z,18.04
2022-10-14T11:19:34.626Z,17.98
2022-10-14T11:20:54.688Z,17.98
2022-10-14T11:22:24.230Z,17.98
2022-10-14T11:23:37.439Z,18.00
2022-10-14T11:24:56.416Z,17.99
2022-10-14T11:25:57.770Z,17.96
2022-10-14T11:27:05.147Z,17.96
2022-10-14T11:28:21.633Z,17.92
2022-10-14T11:29:36.982Z,17.87
2022-10-14T11:30:53.406Z,17.86
2022-10-14T11:31:57.401Z,17.78
2022-10-14T11:32:59.069Z,17.72
2022-10-14T11:34:00.529Z,17.65
2022-10-14T11:35:14.363Z,17.53
2022-10-14T11:36:15.669Z,17.42
2022-10-14T11:37:32.944Z,17.33
2022-10-14T11:38:39.991Z,17.22
2022-10-14T11:39:46.533Z,17.19
2022-10-14T11:41:01.202Z,17.16
2022-10-14T11:42:18.003Z,17.11
2022-10-14T11:43:26.358Z,17.14
2022-10-14T11:44:31.930Z,17.13
2022-10-14T11:45:42.283Z,17.16
2022-10-14T11:46:45.609Z,17.20
2022-10-14T11:47:50.547Z,17.14
2022-10-14T11:49:01.283Z,17.15
2022-10-14T11:50:21.622Z,17.20
2022-10-14T11:51:36.029Z,17.16
2022-10-14T11:52:45.633Z,17.15
2022-10-14T11:53:52.305Z,17.14
2022-10-14T11:54:55.956Z,17.22
2022-10-14T11:56:04.944Z,17.19
2022-10-14T11:57:26.541Z,17.22
2022-10-14T11:58:29.456Z,17.26
2022-10-14T11:59:33.816Z,17.27
2022-10-14T12:00:38.660Z,17.29
2022-10-14T12:01:40.903Z,17.26
2022-10-14T12:02:52.994Z,17.21
2022-10-14T12:03:57.589Z,17.19
2022-10-14T12:05:14.473Z,17.19
2022-10-14T12:06:25.383Z,17.23
2022-10-14T12:07:31.200Z,17.25
2022-10-14T12:08:39.852Z,17.33
2022-10-14T12:09:48.590Z,17.37
2022-10-14T12:10:53.194Z,17.47
2022-10-14T12:12:05.975Z,17.58
2022-10-14T12:13:18.434Z,17.64
2022-10-14T12:14:28.825Z,17.68
2022-10-14T12:16:39.196Z,17.82
2022-10-14T12:17:46.407Z,17.83
2022-10-14T12:18:50.111Z,17.88
2022-10-14T12:19:53.542Z,17.87
2022-10-14T12:20:57.783Z,17.88
2022-10-14T12:21:59.345Z,17.90
2022-10-14T12:23:03.519Z,17.90
2022-10-14T12:24:07.246Z,17.88
2022-10-14T12:25:13.395Z,17.89
2022-10-14T12:26:20.739Z,17.93
2022-10-14T12:27:24.225Z,17.90
2022-10-14T12:28:26.054Z,17.97
2022-10-14T12:29:40.299Z,17.99
2022-10-14T12:30:42.449Z,18.01
2022-10-14T12:31:48.661Z,18.05
2022-10-14T12:33:05.662Z,18.06
2022-10-14T12:34:12.985Z,18.05
2022-10-14T12:35:37.630Z,18.07
2022-10-14T12:36:39.795Z,18.10
2022-10-14T12:37:48.752Z,18.15
2022-10-14T12:39:10.129Z,18.22
2022-10-14T12:40:14.557Z,18.28
2022-10-14T12:41:39.653Z,18.32
2022-10-14T12:42:44.058Z,18.37
2022-10-14T12:43:58.681Z,18.40
2022-10-14T12:45:01.170Z,18.47
2022-10-14T12:46:13.326Z,18.52
2022-10-14T12:47:27.030Z,18.58
2022-10-14T12:48:32.715Z,18.68
2022-10-14T12:49:35.112Z,18.71
2022-10-14T12:50:37.805Z,18.75
2022-10-14T12:51:51.971Z,18.77
2022-10-14T12:52:56.520Z,18.77
2022-10-14T12:54:15.653Z,18.75
2022-10-14T12:55:22.425Z,18.72
2022-10-14T12:56:44.365Z,18.72
2022-10-14T12:57:52.862Z,18.72
2022-10-14T12:59:05.730Z,18.72
2022-10-14T13:00:22.372Z,18.76
2022-10-14T13:01:23.841Z,18.83
2022-10-14T13:02:33.012Z,18.90
2022-10-14T13:03:40.605Z,18.87
2022-10-14T13:04:53.446Z,18.82
2022-10-14T13:06:14.726Z,18.79
2022-10-14T13:07:35.261Z,18.71
2022-10-14T13:08:37.409Z,18.68
2022-10-14T13:09:38.755Z,18.63
2022-10-14T13:10:45.993Z,18.59
2022-10-14T13:11:51.150Z,18.54
2022-10-14T13:12:52.660Z,18.56
2022-10-14T13:14:00.458Z,18.57
2022-10-14T13:15:04.271Z,18.59
2022-10-14T13:16:06.368Z,18.60
2022-10-14T13:17:26.549Z,18.64
2022-10-14T13:18:28.022Z,18.68
2022-10-14T13:19:35.008Z,18.74
2022-10-14T13:20:36.333Z,18.76
2022-10-14T13:21:37.649Z,18.75
2022-10-14T13:22:39.469Z,18.81
2022-10-14T13:23:46.074Z,18.79
2022-10-14T13:24:47.442Z,18.77
2022-10-14T13:25:50.628Z,18.77
2022-10-14T13:26:54.914Z,18.76
2022-10-14T13:28:03.590Z,18.76
2022-10-14T13:29:19.922Z,18.76
2022-10-14T13:30:31.535Z,18.75
2022-10-14T13:31:53.874Z,18.74
2022-10-14T13:32:59.081Z,18.67
2022-10-14T13:34:10.398Z,18.62
2022-10-14T13:35:11.689Z,18.60
2022-10-14T13:36:39.259Z,18.58
2022-10-14T13:37:46.266Z,18.60
2022-10-14T13:38:58.758Z,18.65
2022-10-14T13:40:09.441Z,18.64
2022-10-14T13:41:16.264Z,18.64
2022-10-14T13:42:23.583Z,18.65
2022-10-14T13:43:27.834Z,18.66
2022-10-14T13:44:34.098Z,18.67
2022-10-14T13:45:42.076Z,18.70
2022-10-14T13:46:45.497Z,18.72
2022-10-14T13:47:48.366Z,18.80
2022-10-14T13:48:55.349Z,18.85
2022-10-14T13:49:56.908Z,18.87
2022-10-14T13:51:24.700Z,18.89
2022-10-14T13:52:37.633Z,18.91
2022-10-14T13:53:49.196Z,18.93
2022-10-14T13:55:04.696Z,18.89
2022-10-14T13:56:19.254Z,18.88
2022-10-14T13:57:47.776Z,18.87
2022-10-14T13:58:41.984Z,18.92
2022-10-14T14:00:19.169Z,18.92
2022-10-14T14:01:13.646Z,18.86
2022-10-14T14:02:14.967Z,18.86
2022-10-14T14:03:28.820Z,18.89
2022-10-14T14:04:39.458Z,18.91
2022-10-14T14:05:41.636Z,18.86
2022-10-14T14:07:03.166Z,18.87
2022-10-14T14:08:38.609Z,18.88
2022-10-14T14:09:31.997Z,18.86
2022-10-14T14:10:39.111Z,18.83